sensor_id;sensor_type;location;lat;lon;timestamp;temperature;humidity
25732;DHT22;13585;50.864;4.406;2023-09-19T00:01:23;27.90;49.80
25732;DHT22;13585;50.864;4.406;2023-09-19T00:03:49;28.00;49.90
25732;DHT22;13585;50.864;4.406;2023-09-19T00:06:17;27.90;49.80
25732;DHT22;13585;50.864;4.406;2023-09-19T00:08:43;27.90;49.90
25732;DHT22;13585;50.864;4.406;2023-09-19T00:11:21;27.90;49.90
25732;DHT22;13585;50.864;4.406;2023-09-19T00:14:06;27.90;50.00
25732;DHT22;13585;50.864;4.406;2023-09-19T00:16:39;28.00;49.80
25732;DHT22;13585;50.864;4.406;2023-09-19T00:19:15;28.00;49.80
25732;DHT22;13585;50.864;4.406;2023-09-19T00:21:53;28.00;50.10
25732;DHT22;13585;50.864;4.406;2023-09-19T00:24:19;27.90;50.10
25732;DHT22;13585;50.864;4.406;2023-09-19T00:26:44;27.90;50.10
25732;DHT22;13585;50.864;4.406;2023-09-19T00:29:12;27.90;50.10
25732;DHT22;13585;50.864;4.406;2023-09-19T00:31:43;27.90;50.20
25732;DHT22;13585;50.864;4.406;2023-09-19T00:34:09;27.90;50.20
25732;DHT22;13585;50.864;4.406;2023-09-19T00:39:57;27.80;50.20
25732;DHT22;13585;50.864;4.406;2023-09-19T00:42:45;27.90;50.30
25732;DHT22;13585;50.864;4.406;2023-09-19T00:45:12;27.90;50.30
25732;DHT22;13585;50.864;4.406;2023-09-19T00:47:52;27.90;50.20
25732;DHT22;13585;50.864;4.406;2023-09-19T00:50:19;27.90;50.40
25732;DHT22;13585;50.864;4.406;2023-09-19T00:52:54;27.90;50.40
25732;DHT22;13585;50.864;4.406;2023-09-19T00:55:35;27.80;50.40
25732;DHT22;13585;50.864;4.406;2023-09-19T00:58:08;27.80;50.40
25732;DHT22;13585;50.864;4.406;2023-09-19T01:00:34;27.90;50.40
25732;DHT22;13585;50.864;4.406;2023-09-19T01:03:00;27.80;50.30
25732;DHT22;13585;50.864;4.406;2023-09-19T01:05:29;27.90;50.40
25732;DHT22;13585;50.864;4.406;2023-09-19T01:08:00;27.90;50.50
25732;DHT22;13585;50.864;4.406;2023-09-19T01:10:26;27.80;50.50
25732;DHT22;13585;50.864;4.406;2023-09-19T01:13:13;27.90;50.50
25732;DHT22;13585;50.864;4.406;2023-09-19T01:22:09;27.80;50.40
25732;DHT22;13585;50.864;4.406;2023-09-19T01:30:35;27.90;50.50
25732;DHT22;13585;50.864;4.406;2023-09-19T01:33:05;27.90;50.50
25732;DHT22;13585;50.864;4.406;2023-09-19T01:35:32;27.90;50.60
25732;DHT22;13585;50.864;4.406;2023-09-19T01:37:59;27.80;50.50
25732;DHT22;13585;50.864;4.406;2023-09-19T01:40:25;27.80;50.60
25732;DHT22;13585;50.864;4.406;2023-09-19T01:45:43;27.80;50.60
25732;DHT22;13585;50.864;4.406;2023-09-19T01:48:43;27.80;50.50
25732;DHT22;13585;50.864;4.406;2023-09-19T01:51:39;27.80;50.60
25732;DHT22;13585;50.864;4.406;2023-09-19T01:54:12;27.80;50.60
25732;DHT22;13585;50.864;4.406;2023-09-19T01:59:54;27.80;50.50
25732;DHT22;13585;50.864;4.406;2023-09-19T02:02:22;27.80;50.60
25732;DHT22;13585;50.864;4.406;2023-09-19T02:04:49;27.80;50.50
25732;DHT22;13585;50.864;4.406;2023-09-19T02:07:18;27.80;50.50
25732;DHT22;13585;50.864;4.406;2023-09-19T02:09:44;27.80;50.60
25732;DHT22;13585;50.864;4.406;2023-09-19T02:12:12;27.80;50.60
25732;DHT22;13585;50.864;4.406;2023-09-19T02:14:41;27.80;50.60
25732;DHT22;13585;50.864;4.406;2023-09-19T02:17:13;27.80;50.60
25732;DHT22;13585;50.864;4.406;2023-09-19T02:19:50;27.80;50.70
25732;DHT22;13585;50.864;4.406;2023-09-19T02:22:16;27.90;50.50
25732;DHT22;13585;50.864;4.406;2023-09-19T02:24:44;27.90;50.40
25732;DHT22;13585;50.864;4.406;2023-09-19T02:27:11;27.80;50.50
25732;DHT22;13585;50.864;4.406;2023-09-19T02:29:39;27.80;50.50
25732;DHT22;13585;50.864;4.406;2023-09-19T02:32:06;27.80;50.50
25732;DHT22;13585;50.864;4.406;2023-09-19T02:34:34;27.80;50.50
25732;DHT22;13585;50.864;4.406;2023-09-19T02:37:05;27.80;50.60
25732;DHT22;13585;50.864;4.406;2023-09-19T02:39:31;27.70;50.50
25732;DHT22;13585;50.864;4.406;2023-09-19T02:41:57;27.70;50.50
25732;DHT22;13585;50.864;4.406;2023-09-19T02:44:29;27.80;50.50
25732;DHT22;13585;50.864;4.406;2023-09-19T02:46:54;27.70;50.50
25732;DHT22;13585;50.864;4.406;2023-09-19T02:49:20;27.90;50.50
25732;DHT22;13585;50.864;4.406;2023-09-19T02:52:01;27.80;50.20
25732;DHT22;13585;50.864;4.406;2023-09-19T02:54:30;27.80;50.30
25732;DHT22;13585;50.864;4.406;2023-09-19T02:57:02;27.90;50.40
25732;DHT22;13585;50.864;4.406;2023-09-19T02:59:29;27.80;50.20
25732;DHT22;13585;50.864;4.406;2023-09-19T03:01:56;27.80;50.40
25732;DHT22;13585;50.864;4.406;2023-09-19T03:04:23;27.70;50.40
25732;DHT22;13585;50.864;4.406;2023-09-19T03:06:48;27.80;50.50
25732;DHT22;13585;50.864;4.406;2023-09-19T03:09:16;27.70;50.50
25732;DHT22;13585;50.864;4.406;2023-09-19T03:11:44;27.70;50.40
25732;DHT22;13585;50.864;4.406;2023-09-19T03:14:17;27.70;50.50
25732;DHT22;13585;50.864;4.406;2023-09-19T03:16:45;27.70;50.50
25732;DHT22;13585;50.864;4.406;2023-09-19T03:19:11;27.70;50.40
25732;DHT22;13585;50.864;4.406;2023-09-19T03:21:44;27.70;50.40
25732;DHT22;13585;50.864;4.406;2023-09-19T03:24:12;27.60;50.40
25732;DHT22;13585;50.864;4.406;2023-09-19T03:27:03;27.70;50.40
25732;DHT22;13585;50.864;4.406;2023-09-19T03:29:28;27.70;50.50
25732;DHT22;13585;50.864;4.406;2023-09-19T03:31:54;27.70;50.30
25732;DHT22;13585;50.864;4.406;2023-09-19T03:34:20;27.70;50.30
25732;DHT22;13585;50.864;4.406;2023-09-19T03:36:46;27.70;50.40
25732;DHT22;13585;50.864;4.406;2023-09-19T03:39:21;27.70;50.40
25732;DHT22;13585;50.864;4.406;2023-09-19T03:41:46;27.70;50.50
25732;DHT22;13585;50.864;4.406;2023-09-19T03:44:12;27.70;50.40
25732;DHT22;13585;50.864;4.406;2023-09-19T03:46:38;27.70;50.40
25732;DHT22;13585;50.864;4.406;2023-09-19T03:49:04;27.70;50.40
25732;DHT22;13585;50.864;4.406;2023-09-19T03:51:29;27.70;50.40
25732;DHT22;13585;50.864;4.406;2023-09-19T03:53:55;27.70;50.40
25732;DHT22;13585;50.864;4.406;2023-09-19T03:56:27;27.70;50.40
25732;DHT22;13585;50.864;4.406;2023-09-19T03:58:54;27.70;50.40
25732;DHT22;13585;50.864;4.406;2023-09-19T04:01:23;27.70;50.30
25732;DHT22;13585;50.864;4.406;2023-09-19T04:03:48;27.70;50.40
25732;DHT22;13585;50.864;4.406;2023-09-19T04:06:16;27.70;50.40
25732;DHT22;13585;50.864;4.406;2023-09-19T04:08:51;27.70;51.00
25732;DHT22;13585;50.864;4.406;2023-09-19T04:11:21;27.60;50.40
25732;DHT22;13585;50.864;4.406;2023-09-19T04:13:47;27.70;50.40
25732;DHT22;13585;50.864;4.406;2023-09-19T04:16:25;27.70;50.30
25732;DHT22;13585;50.864;4.406;2023-09-19T04:18:57;27.70;50.30
25732;DHT22;13585;50.864;4.406;2023-09-19T04:21:22;27.70;50.40
25732;DHT22;13585;50.864;4.406;2023-09-19T04:23:54;27.70;50.30
25732;DHT22;13585;50.864;4.406;2023-09-19T04:26:19;27.60;50.40
25732;DHT22;13585;50.864;4.406;2023-09-19T04:28:46;27.70;50.30
25732;DHT22;13585;50.864;4.406;2023-09-19T04:31:11;27.60;50.20
25732;DHT22;13585;50.864;4.406;2023-09-19T04:33:43;27.70;50.30
25732;DHT22;13585;50.864;4.406;2023-09-19T04:36:08;27.60;50.40
25732;DHT22;13585;50.864;4.406;2023-09-19T04:38:35;27.70;50.30
25732;DHT22;13585;50.864;4.406;2023-09-19T04:41:01;27.80;50.10
25732;DHT22;13585;50.864;4.406;2023-09-19T04:43:27;27.70;50.20
25732;DHT22;13585;50.864;4.406;2023-09-19T04:45:54;27.70;50.20
25732;DHT22;13585;50.864;4.406;2023-09-19T04:48:22;27.60;50.20
25732;DHT22;13585;50.864;4.406;2023-09-19T04:51:01;27.60;50.20
25732;DHT22;13585;50.864;4.406;2023-09-19T04:53:27;27.60;50.40
25732;DHT22;13585;50.864;4.406;2023-09-19T04:56:01;27.60;50.30
25732;DHT22;13585;50.864;4.406;2023-09-19T04:58:36;27.60;50.40
25732;DHT22;13585;50.864;4.406;2023-09-19T05:01:01;27.60;50.30
25732;DHT22;13585;50.864;4.406;2023-09-19T05:03:30;27.60;50.20
25732;DHT22;13585;50.864;4.406;2023-09-19T05:05:56;27.60;50.30
25732;DHT22;13585;50.864;4.406;2023-09-19T05:08:31;27.60;50.30
25732;DHT22;13585;50.864;4.406;2023-09-19T05:11:03;27.60;51.00
25732;DHT22;13585;50.864;4.406;2023-09-19T05:13:29;27.60;50.40
25732;DHT22;13585;50.864;4.406;2023-09-19T05:15:54;27.70;50.30
25732;DHT22;13585;50.864;4.406;2023-09-19T05:18:20;27.70;50.20
25732;DHT22;13585;50.864;4.406;2023-09-19T05:20:56;27.60;50.40
25732;DHT22;13585;50.864;4.406;2023-09-19T05:23:21;27.60;50.50
25732;DHT22;13585;50.864;4.406;2023-09-19T05:25:47;27.60;50.60
25732;DHT22;13585;50.864;4.406;2023-09-19T05:28:12;27.50;50.60
25732;DHT22;13585;50.864;4.406;2023-09-19T05:30:40;27.50;50.60
25732;DHT22;13585;50.864;4.406;2023-09-19T05:33:07;27.60;50.70
25732;DHT22;13585;50.864;4.406;2023-09-19T05:35:47;27.60;50.70
25732;DHT22;13585;50.864;4.406;2023-09-19T05:38:42;27.60;50.90
25732;DHT22;13585;50.864;4.406;2023-09-19T05:41:21;27.50;50.70
25732;DHT22;13585;50.864;4.406;2023-09-19T05:43:56;27.60;50.80
25732;DHT22;13585;50.864;4.406;2023-09-19T05:46:24;27.50;50.70
25732;DHT22;13585;50.864;4.406;2023-09-19T05:51:22;27.60;50.80
25732;DHT22;13585;50.864;4.406;2023-09-19T05:54:00;27.60;50.80
25732;DHT22;13585;50.864;4.406;2023-09-19T05:56:41;27.50;50.90
25732;DHT22;13585;50.864;4.406;2023-09-19T05:59:07;27.60;51.00
25732;DHT22;13585;50.864;4.406;2023-09-19T06:01:38;27.60;50.80
25732;DHT22;13585;50.864;4.406;2023-09-19T06:04:13;27.60;50.80
25732;DHT22;13585;50.864;4.406;2023-09-19T06:06:39;27.60;50.80
25732;DHT22;13585;50.864;4.406;2023-09-19T06:09:06;27.50;50.60
25732;DHT22;13585;50.864;4.406;2023-09-19T06:11:34;27.40;50.60
25732;DHT22;13585;50.864;4.406;2023-09-19T06:14:01;27.50;50.70
25732;DHT22;13585;50.864;4.406;2023-09-19T06:16:28;27.50;50.70
25732;DHT22;13585;50.864;4.406;2023-09-19T06:19:00;27.60;50.80
25732;DHT22;13585;50.864;4.406;2023-09-19T06:21:27;27.50;50.70
25732;DHT22;13585;50.864;4.406;2023-09-19T06:23:55;27.60;50.70
25732;DHT22;13585;50.864;4.406;2023-09-19T06:26:23;27.50;50.60
25732;DHT22;13585;50.864;4.406;2023-09-19T06:28:49;27.50;50.60
25732;DHT22;13585;50.864;4.406;2023-09-19T06:31:17;27.60;50.60
25732;DHT22;13585;50.864;4.406;2023-09-19T06:33:43;27.50;50.60
25732;DHT22;13585;50.864;4.406;2023-09-19T06:36:18;27.50;50.50
25732;DHT22;13585;50.864;4.406;2023-09-19T06:38:56;27.50;50.70
25732;DHT22;13585;50.864;4.406;2023-09-19T06:41:34;27.50;50.60
25732;DHT22;13585;50.864;4.406;2023-09-19T06:44:03;27.50;50.60
25732;DHT22;13585;50.864;4.406;2023-09-19T06:46:30;27.50;50.50
25732;DHT22;13585;50.864;4.406;2023-09-19T06:49:09;27.50;50.50
25732;DHT22;13585;50.864;4.406;2023-09-19T06:51:38;27.50;50.60
25732;DHT22;13585;50.864;4.406;2023-09-19T06:54:04;27.50;50.50
25732;DHT22;13585;50.864;4.406;2023-09-19T06:56:30;27.50;50.50
25732;DHT22;13585;50.864;4.406;2023-09-19T06:58:59;27.50;50.50
25732;DHT22;13585;50.864;4.406;2023-09-19T07:01:28;27.50;50.50
25732;DHT22;13585;50.864;4.406;2023-09-19T07:03:53;27.50;50.50
25732;DHT22;13585;50.864;4.406;2023-09-19T07:06:20;27.50;50.50
25732;DHT22;13585;50.864;4.406;2023-09-19T07:08:48;27.50;50.50
25732;DHT22;13585;50.864;4.406;2023-09-19T07:11:15;27.50;50.50
25732;DHT22;13585;50.864;4.406;2023-09-19T07:13:41;27.60;50.50
25732;DHT22;13585;50.864;4.406;2023-09-19T07:16:09;27.50;50.50
25732;DHT22;13585;50.864;4.406;2023-09-19T07:18:52;27.60;50.50
25732;DHT22;13585;50.864;4.406;2023-09-19T07:21:18;27.50;50.40
25732;DHT22;13585;50.864;4.406;2023-09-19T07:23:44;27.50;50.40
25732;DHT22;13585;50.864;4.406;2023-09-19T07:26:10;27.60;50.50
25732;DHT22;13585;50.864;4.406;2023-09-19T07:28:35;27.60;50.50
25732;DHT22;13585;50.864;4.406;2023-09-19T07:31:02;27.60;50.50
25732;DHT22;13585;50.864;4.406;2023-09-19T07:33:28;27.60;50.50
25732;DHT22;13585;50.864;4.406;2023-09-19T07:35:57;27.60;50.50
25732;DHT22;13585;50.864;4.406;2023-09-19T07:38:26;27.50;50.50
25732;DHT22;13585;50.864;4.406;2023-09-19T07:41:01;27.50;50.40
25732;DHT22;13585;50.864;4.406;2023-09-19T07:43:28;27.50;50.50
25732;DHT22;13585;50.864;4.406;2023-09-19T07:46:03;27.60;50.50
25732;DHT22;13585;50.864;4.406;2023-09-19T07:48:31;27.50;50.50
25732;DHT22;13585;50.864;4.406;2023-09-19T07:51:04;27.60;50.50
25732;DHT22;13585;50.864;4.406;2023-09-19T07:53:34;27.50;50.40
25732;DHT22;13585;50.864;4.406;2023-09-19T07:56:04;27.60;50.50
25732;DHT22;13585;50.864;4.406;2023-09-19T07:58:39;27.50;50.40
25732;DHT22;13585;50.864;4.406;2023-09-19T08:01:07;27.50;50.50
25732;DHT22;13585;50.864;4.406;2023-09-19T08:03:33;27.60;50.40
25732;DHT22;13585;50.864;4.406;2023-09-19T08:06:00;27.60;50.50
25732;DHT22;13585;50.864;4.406;2023-09-19T08:08:26;27.60;50.50
25732;DHT22;13585;50.864;4.406;2023-09-19T08:11:03;27.60;50.50
25732;DHT22;13585;50.864;4.406;2023-09-19T08:13:35;27.60;50.50
25732;DHT22;13585;50.864;4.406;2023-09-19T08:16:10;27.60;50.50
25732;DHT22;13585;50.864;4.406;2023-09-19T08:18:36;27.60;50.50
25732;DHT22;13585;50.864;4.406;2023-09-19T08:21:05;27.60;50.50
25732;DHT22;13585;50.864;4.406;2023-09-19T08:23:33;27.60;50.60
25732;DHT22;13585;50.864;4.406;2023-09-19T08:25:59;27.60;50.60
25732;DHT22;13585;50.864;4.406;2023-09-19T08:28:28;27.60;50.60
25732;DHT22;13585;50.864;4.406;2023-09-19T08:31:05;27.60;50.60
25732;DHT22;13585;50.864;4.406;2023-09-19T08:33:34;27.50;50.60
25732;DHT22;13585;50.864;4.406;2023-09-19T08:36:09;27.60;50.60
25732;DHT22;13585;50.864;4.406;2023-09-19T08:38:38;27.50;50.50
25732;DHT22;13585;50.864;4.406;2023-09-19T08:41:17;27.50;50.50
25732;DHT22;13585;50.864;4.406;2023-09-19T08:43:44;27.60;50.70
25732;DHT22;13585;50.864;4.406;2023-09-19T08:46:15;27.60;50.50
25732;DHT22;13585;50.864;4.406;2023-09-19T08:49:27;27.60;50.60
25732;DHT22;13585;50.864;4.406;2023-09-19T08:52:09;27.50;50.60
25732;DHT22;13585;50.864;4.406;2023-09-19T08:54:40;27.60;50.50
25732;DHT22;13585;50.864;4.406;2023-09-19T08:57:07;27.60;50.60
25732;DHT22;13585;50.864;4.406;2023-09-19T08:59:44;27.60;50.60
25732;DHT22;13585;50.864;4.406;2023-09-19T09:02:14;27.60;50.60
25732;DHT22;13585;50.864;4.406;2023-09-19T09:04:41;27.60;50.70
25732;DHT22;13585;50.864;4.406;2023-09-19T09:07:15;27.60;50.70
25732;DHT22;13585;50.864;4.406;2023-09-19T09:09:43;27.60;50.80
25732;DHT22;13585;50.864;4.406;2023-09-19T09:12:12;27.60;50.80
25732;DHT22;13585;50.864;4.406;2023-09-19T09:14:39;27.60;50.80
25732;DHT22;13585;50.864;4.406;2023-09-19T09:17:05;27.60;50.80
25732;DHT22;13585;50.864;4.406;2023-09-19T09:19:31;27.70;50.90
25732;DHT22;13585;50.864;4.406;2023-09-19T09:22:10;27.70;50.90
25732;DHT22;13585;50.864;4.406;2023-09-19T09:24:37;27.60;51.00
25732;DHT22;13585;50.864;4.406;2023-09-19T09:27:16;27.70;51.00
25732;DHT22;13585;50.864;4.406;2023-09-19T09:29:48;27.60;50.90
25732;DHT22;13585;50.864;4.406;2023-09-19T09:34:54;27.60;51.00
25732;DHT22;13585;50.864;4.406;2023-09-19T09:37:21;27.60;51.00
25732;DHT22;13585;50.864;4.406;2023-09-19T09:39:51;27.70;51.10
25732;DHT22;13585;50.864;4.406;2023-09-19T09:42:35;27.60;51.10
25732;DHT22;13585;50.864;4.406;2023-09-19T09:45:20;27.60;51.20
25732;DHT22;13585;50.864;4.406;2023-09-19T09:47:59;27.60;51.20
25732;DHT22;13585;50.864;4.406;2023-09-19T09:50:47;27.70;51.10
25732;DHT22;13585;50.864;4.406;2023-09-19T09:53:34;27.60;51.10
25732;DHT22;13585;50.864;4.406;2023-09-19T09:56:26;27.60;51.20
25732;DHT22;13585;50.864;4.406;2023-09-19T10:07:50;27.60;50.80
25732;DHT22;13585;50.864;4.406;2023-09-19T10:10:54;27.50;50.80
25732;DHT22;13585;50.864;4.406;2023-09-19T10:26:24;27.60;50.30
25732;DHT22;13585;50.864;4.406;2023-09-19T10:50:23;27.70;49.80
25732;DHT22;13585;50.864;4.406;2023-09-19T11:01:50;27.80;49.80
25732;DHT22;13585;50.864;4.406;2023-09-19T11:04:36;27.80;49.60
25732;DHT22;13585;50.864;4.406;2023-09-19T11:07:32;27.80;49.70
25732;DHT22;13585;50.864;4.406;2023-09-19T11:14:38;27.80;49.60
25732;DHT22;13585;50.864;4.406;2023-09-19T11:17:37;27.80;49.60
25732;DHT22;13585;50.864;4.406;2023-09-19T11:20:29;27.90;49.60
25732;DHT22;13585;50.864;4.406;2023-09-19T11:23:24;27.80;49.60
25732;DHT22;13585;50.864;4.406;2023-09-19T11:29:49;27.70;49.60
25732;DHT22;13585;50.864;4.406;2023-09-19T11:41:46;27.80;50.10
25732;DHT22;13585;50.864;4.406;2023-09-19T11:44:34;27.80;49.60
25732;DHT22;13585;50.864;4.406;2023-09-19T11:47:10;27.80;49.60
25732;DHT22;13585;50.864;4.406;2023-09-19T11:52:39;27.80;49.40
25732;DHT22;13585;50.864;4.406;2023-09-19T11:55:06;27.80;49.30
25732;DHT22;13585;50.864;4.406;2023-09-19T11:57:34;27.80;49.40
25732;DHT22;13585;50.864;4.406;2023-09-19T12:00:21;27.80;49.40
25732;DHT22;13585;50.864;4.406;2023-09-19T12:02:55;27.80;49.40
25732;DHT22;13585;50.864;4.406;2023-09-19T12:05:30;27.80;49.40
25732;DHT22;13585;50.864;4.406;2023-09-19T12:07:58;27.80;49.50
25732;DHT22;13585;50.864;4.406;2023-09-19T12:10:24;27.80;49.50
25732;DHT22;13585;50.864;4.406;2023-09-19T12:13:07;27.90;49.60
25732;DHT22;13585;50.864;4.406;2023-09-19T12:15:37;27.80;49.60
25732;DHT22;13585;50.864;4.406;2023-09-19T12:18:45;27.80;49.50
25732;DHT22;13585;50.864;4.406;2023-09-19T12:21:32;27.80;49.60
25732;DHT22;13585;50.864;4.406;2023-09-19T12:24:04;27.80;49.70
25732;DHT22;13585;50.864;4.406;2023-09-19T12:26:43;27.90;49.80
25732;DHT22;13585;50.864;4.406;2023-09-19T12:29:19;27.80;49.90
25732;DHT22;13585;50.864;4.406;2023-09-19T12:32:04;27.80;50.00
25732;DHT22;13585;50.864;4.406;2023-09-19T12:38:34;27.90;50.10
25732;DHT22;13585;50.864;4.406;2023-09-19T12:50:10;27.80;49.80
25732;DHT22;13585;50.864;4.406;2023-09-19T12:56:18;27.80;49.90
25732;DHT22;13585;50.864;4.406;2023-09-19T12:59:02;27.80;49.90
25732;DHT22;13585;50.864;4.406;2023-09-19T13:01:28;27.80;50.00
25732;DHT22;13585;50.864;4.406;2023-09-19T13:04:15;27.80;49.90
25732;DHT22;13585;50.864;4.406;2023-09-19T13:06:58;27.80;50.00
25732;DHT22;13585;50.864;4.406;2023-09-19T13:12:43;27.90;49.90
25732;DHT22;13585;50.864;4.406;2023-09-19T13:15:15;27.80;50.00
25732;DHT22;13585;50.864;4.406;2023-09-19T13:21:07;27.80;49.90
25732;DHT22;13585;50.864;4.406;2023-09-19T13:23:38;27.90;49.90
25732;DHT22;13585;50.864;4.406;2023-09-19T13:26:25;27.80;49.90
25732;DHT22;13585;50.864;4.406;2023-09-19T13:29:03;27.90;50.00
25732;DHT22;13585;50.864;4.406;2023-09-19T13:39:46;27.90;49.80
25732;DHT22;13585;50.864;4.406;2023-09-19T13:42:14;27.90;49.90
25732;DHT22;13585;50.864;4.406;2023-09-19T13:44:39;27.80;49.80
25732;DHT22;13585;50.864;4.406;2023-09-19T13:47:15;27.80;49.80
25732;DHT22;13585;50.864;4.406;2023-09-19T13:50:02;27.80;49.90
25732;DHT22;13585;50.864;4.406;2023-09-19T13:52:29;27.80;49.90
25732;DHT22;13585;50.864;4.406;2023-09-19T13:54:58;27.90;49.90
25732;DHT22;13585;50.864;4.406;2023-09-19T13:57:29;27.80;49.80
25732;DHT22;13585;50.864;4.406;2023-09-19T13:59:58;27.80;49.80
25732;DHT22;13585;50.864;4.406;2023-09-19T14:02:24;27.80;49.80
25732;DHT22;13585;50.864;4.406;2023-09-19T14:04:59;27.80;49.90
25732;DHT22;13585;50.864;4.406;2023-09-19T14:07:25;27.70;49.80
25732;DHT22;13585;50.864;4.406;2023-09-19T14:09:50;27.80;49.80
25732;DHT22;13585;50.864;4.406;2023-09-19T14:12:16;27.70;49.80
25732;DHT22;13585;50.864;4.406;2023-09-19T14:14:42;27.80;49.80
25732;DHT22;13585;50.864;4.406;2023-09-19T14:17:08;27.80;49.80
25732;DHT22;13585;50.864;4.406;2023-09-19T14:19:34;27.80;49.80
25732;DHT22;13585;50.864;4.406;2023-09-19T14:22:02;27.80;49.80
25732;DHT22;13585;50.864;4.406;2023-09-19T14:24:35;27.80;49.80
25732;DHT22;13585;50.864;4.406;2023-09-19T14:27:04;27.80;49.80
25732;DHT22;13585;50.864;4.406;2023-09-19T14:29:34;27.70;49.70
25732;DHT22;13585;50.864;4.406;2023-09-19T14:32:03;27.80;49.70
25732;DHT22;13585;50.864;4.406;2023-09-19T14:34:29;27.80;49.60
25732;DHT22;13585;50.864;4.406;2023-09-19T14:36:54;27.80;49.70
25732;DHT22;13585;50.864;4.406;2023-09-19T14:39:20;27.70;49.60
25732;DHT22;13585;50.864;4.406;2023-09-19T14:41:46;27.80;49.60
25732;DHT22;13585;50.864;4.406;2023-09-19T14:44:11;27.80;49.60
25732;DHT22;13585;50.864;4.406;2023-09-19T14:46:42;27.80;49.50
25732;DHT22;13585;50.864;4.406;2023-09-19T14:49:10;27.80;49.50
25732;DHT22;13585;50.864;4.406;2023-09-19T14:51:41;27.80;49.40
25732;DHT22;13585;50.864;4.406;2023-09-19T14:54:10;27.80;49.50
25732;DHT22;13585;50.864;4.406;2023-09-19T14:56:41;27.80;49.40
25732;DHT22;13585;50.864;4.406;2023-09-19T14:59:18;27.80;49.50
25732;DHT22;13585;50.864;4.406;2023-09-19T15:02:07;27.80;49.50
25732;DHT22;13585;50.864;4.406;2023-09-19T15:04:39;27.80;49.30
25732;DHT22;13585;50.864;4.406;2023-09-19T15:07:12;27.80;49.40
25732;DHT22;13585;50.864;4.406;2023-09-19T15:09:38;27.80;49.50
25732;DHT22;13585;50.864;4.406;2023-09-19T15:12:06;27.80;49.40
25732;DHT22;13585;50.864;4.406;2023-09-19T15:14:32;27.80;49.50
25732;DHT22;13585;50.864;4.406;2023-09-19T15:16:58;27.80;49.50
25732;DHT22;13585;50.864;4.406;2023-09-19T15:19:23;27.80;49.50
25732;DHT22;13585;50.864;4.406;2023-09-19T15:21:55;27.80;49.50
25732;DHT22;13585;50.864;4.406;2023-09-19T15:24:30;27.80;49.50
25732;DHT22;13585;50.864;4.406;2023-09-19T15:27:00;27.70;49.60
25732;DHT22;13585;50.864;4.406;2023-09-19T15:32:32;27.80;49.60
25732;DHT22;13585;50.864;4.406;2023-09-19T15:34:58;27.80;49.60
25732;DHT22;13585;50.864;4.406;2023-09-19T15:37:24;27.80;49.60
25732;DHT22;13585;50.864;4.406;2023-09-19T15:39:51;27.80;49.60
25732;DHT22;13585;50.864;4.406;2023-09-19T15:42:20;27.70;49.60
25732;DHT22;13585;50.864;4.406;2023-09-19T15:44:46;27.80;49.70
25732;DHT22;13585;50.864;4.406;2023-09-19T15:47:32;27.70;49.70
25732;DHT22;13585;50.864;4.406;2023-09-19T15:53:20;27.80;49.80
25732;DHT22;13585;50.864;4.406;2023-09-19T15:55:46;27.70;49.70
25732;DHT22;13585;50.864;4.406;2023-09-19T15:58:30;27.70;49.70
25732;DHT22;13585;50.864;4.406;2023-09-19T16:04:04;27.70;49.90
25732;DHT22;13585;50.864;4.406;2023-09-19T16:07:03;27.70;50.00
25732;DHT22;13585;50.864;4.406;2023-09-19T16:09:38;27.70;50.00
25732;DHT22;13585;50.864;4.406;2023-09-19T16:12:13;27.70;49.90
25732;DHT22;13585;50.864;4.406;2023-09-19T16:14:39;27.70;49.90
25732;DHT22;13585;50.864;4.406;2023-09-19T16:17:11;27.70;49.90
25732;DHT22;13585;50.864;4.406;2023-09-19T16:19:52;27.70;50.00
25732;DHT22;13585;50.864;4.406;2023-09-19T16:22:17;27.70;50.10
25732;DHT22;13585;50.864;4.406;2023-09-19T16:25:01;27.70;50.00
25732;DHT22;13585;50.864;4.406;2023-09-19T16:27:28;27.70;50.10
25732;DHT22;13585;50.864;4.406;2023-09-19T16:29:53;27.70;50.00
25732;DHT22;13585;50.864;4.406;2023-09-19T16:32:19;27.70;50.00
25732;DHT22;13585;50.864;4.406;2023-09-19T16:34:51;27.70;50.10
25732;DHT22;13585;50.864;4.406;2023-09-19T16:37:19;27.70;50.10
25732;DHT22;13585;50.864;4.406;2023-09-19T16:39:52;27.70;50.10
25732;DHT22;13585;50.864;4.406;2023-09-19T16:42:18;27.60;50.10
25732;DHT22;13585;50.864;4.406;2023-09-19T16:44:43;27.70;50.20
25732;DHT22;13585;50.864;4.406;2023-09-19T16:58:08;27.70;50.30
25732;DHT22;13585;50.864;4.406;2023-09-19T17:03:16;27.70;50.40
25732;DHT22;13585;50.864;4.406;2023-09-19T17:06:00;27.70;50.50
25732;DHT22;13585;50.864;4.406;2023-09-19T17:11:56;27.60;50.40
25732;DHT22;13585;50.864;4.406;2023-09-19T17:17:37;27.70;50.50
25732;DHT22;13585;50.864;4.406;2023-09-19T17:20:31;27.60;50.40
25732;DHT22;13585;50.864;4.406;2023-09-19T17:23:33;27.70;51.20
25732;DHT22;13585;50.864;4.406;2023-09-19T17:26:20;27.70;50.60
25732;DHT22;13585;50.864;4.406;2023-09-19T17:28:48;27.70;50.70
25732;DHT22;13585;50.864;4.406;2023-09-19T17:36:46;27.60;50.80
25732;DHT22;13585;50.864;4.406;2023-09-19T17:39:16;27.50;50.90
25732;DHT22;13585;50.864;4.406;2023-09-19T17:44:53;27.60;51.10
25732;DHT22;13585;50.864;4.406;2023-09-19T17:47:28;27.60;51.00
25732;DHT22;13585;50.864;4.406;2023-09-19T17:49:54;27.60;51.20
25732;DHT22;13585;50.864;4.406;2023-09-19T18:05:37;27.60;51.10
25732;DHT22;13585;50.864;4.406;2023-09-19T18:08:07;27.60;51.10
25732;DHT22;13585;50.864;4.406;2023-09-19T18:20:37;27.60;51.20
25732;DHT22;13585;50.864;4.406;2023-09-19T18:23:08;27.60;51.30
25732;DHT22;13585;50.864;4.406;2023-09-19T18:28:31;27.60;51.20
25732;DHT22;13585;50.864;4.406;2023-09-19T18:31:09;27.60;51.30
25732;DHT22;13585;50.864;4.406;2023-09-19T18:37:12;27.60;51.30
25732;DHT22;13585;50.864;4.406;2023-09-19T18:43:02;27.60;51.30
25732;DHT22;13585;50.864;4.406;2023-09-19T18:50:45;27.70;51.20
25732;DHT22;13585;50.864;4.406;2023-09-19T18:53:10;27.60;51.20
25732;DHT22;13585;50.864;4.406;2023-09-19T18:55:45;27.60;51.20
25732;DHT22;13585;50.864;4.406;2023-09-19T18:58:17;27.60;51.30
25732;DHT22;13585;50.864;4.406;2023-09-19T19:01:06;27.60;51.30
25732;DHT22;13585;50.864;4.406;2023-09-19T19:03:32;27.50;51.30
25732;DHT22;13585;50.864;4.406;2023-09-19T19:06:12;27.60;51.20
25732;DHT22;13585;50.864;4.406;2023-09-19T19:08:41;27.60;51.40
25732;DHT22;13585;50.864;4.406;2023-09-19T19:11:09;27.60;51.20
25732;DHT22;13585;50.864;4.406;2023-09-19T19:13:44;27.60;51.20
25732;DHT22;13585;50.864;4.406;2023-09-19T19:16:13;27.60;51.30
25732;DHT22;13585;50.864;4.406;2023-09-19T19:18:46;27.50;51.20
25732;DHT22;13585;50.864;4.406;2023-09-19T19:21:18;27.50;51.10
25732;DHT22;13585;50.864;4.406;2023-09-19T19:23:50;27.50;51.20
25732;DHT22;13585;50.864;4.406;2023-09-19T19:26:17;27.50;51.10